首页
METAR-TAF:

METAR-TAF

机场 :

格拉茨, 奥地利

纬度: 47-00N, 经度: 015-26E, 海拔: 340米

当前天气观测

该预报发布于14分钟前的01:20 UTC
风速3节,风向,在东南西转西南之间变化
温度 12°C
湿度 88%
气压 1019 hPa
能见度10公里或以上
少量云层高于1900英尺
阴天层高于2000英尺

METAR: LOWG 170120Z AUTO 17003KT 130V240 9999 FEW019 OVC020 12/10 Q1019

时间: 03:34 (01:34 UTC)

预报

该预报发布于2小时和19分钟前的23:15 UTC
预报有效从17日的 00点(UTC)到 17日的 24点(UTC)
风速2节,风向多变
能见度10公里或以上
散云层高于3000英尺
散云层高于6000英尺
短暂存在
从 17日的 00点(UTC)到 17日的 06点(UTC)
能見度: 0500
散云层高于2500英尺
碎片雾
短暂存在
从 17日的 06点(UTC)到 17日的 09点(UTC)
能見度: 3000
多云层高于800英尺
轻雾

TAF: LOWG 162315Z 1700/1724 VRB02KT 9999 SCT030 SCT060 TX19/1714Z TN07/1724Z TEMPO 1700/1706 0500 BCFG SCT025 TEMPO 1706/1709 3000 BR BKN008

超过4000个机场的气象观测和天气预报(METAR&TAF报告)。

可查询的气象台以黄色和红色小点在地图上表示。

将鼠标移到小点上方,可查看气象台名称。

然后点击查看天气观测和预报。

如需切换地图:点击带黑十字的绿色按钮放大地图;点击带横线的绿色按钮缩小地图;或者点击绿色箭头查看邻近地区的地图。


METAR-TAF: